Time;durP1;ratioP1;P1;durP2;ratioP2;P2;SDS_P1;SDS_P2;PMS_P1;PMS_P2;Temp;Humidity;BMP_temperature;BMP_pressure;BME280_temperature;BME280_humidity;BME280_pressure;Samples;Min_cycle;Max_cycle;Signal;HPM_P1;HPM_P2
2022/06/30 00:00:50;;;;;;;;;;;;;;;;;;2140898;27;20021;-46
2022/06/30 00:01:51;;;;;;;;;;;;;;;;;;2140899;27;19958;-46
2022/06/30 00:02:52;;;;;;;;;;;;;;;;;;2140839;27;19974;-46
2022/06/30 00:03:53;;;;;;;;;;;;;;;;;;2140824;27;19938;-46
2022/06/30 00:04:54;;;;;;;;;;;;;;;;;;2140790;27;20356;-46
2022/06/30 00:05:55;;;;;;;;;;;;;;;;;;2140746;27;19927;-46
2022/06/30 00:06:55;;;;;;;;;;;;;;;;;;2141203;27;19926;-47
2022/06/30 00:07:56;;;;;;;;;;;;;;;;;;2140666;27;19927;-47
2022/06/30 00:08:57;;;;;;;;;;;;;;;;;;2140933;27;19958;-46
2022/06/30 00:09:58;;;;;;;;;;;;;;;;;;2140899;27;19923;-46
2022/06/30 00:11:06;;;;;;;;;;;;;;;;;;2139820;27;20367;-46
2022/06/30 00:12:07;;;;;;;;;;;;;;;;;;2132297;27;20007;-49
2022/06/30 00:13:08;;;;;;;;;;;;;;;;;;2132312;27;20357;-43
2022/06/30 00:14:09;;;;;;;;;;;;;;;;;;2132146;27;19955;-44
2022/06/30 00:15:10;;;;;;;;;;;;;;;;;;2132012;27;20275;-44
2022/06/30 00:16:11;;;;;;;;;;;;;;;;;;2132238;27;20022;-44
2022/06/30 00:17:12;;;;;;;;;;;;;;;;;;2131962;27;19931;-43
2022/06/30 00:18:13;;;;;;;;;;;;;;;;;;2131359;27;19923;-45
2022/06/30 00:19:13;;;;;;;;;;;;;;;;;;2132270;27;19923;-43
2022/06/30 00:20:14;;;;;;;;;;;;;;;;;;2132140;27;20295;-43
2022/06/30 00:21:15;;;;;;;;;;;;;;;;;;2132180;27;19981;-44
2022/06/30 00:22:16;;;;;;;;;;;;;;;;;;2139222;27;19977;-44
2022/06/30 00:23:17;;;;;;;;;;;;;;;;;;2140721;27;19923;-46
2022/06/30 00:24:18;;;;;;;;;;;;;;;;;;2140895;27;20036;-43
2022/06/30 00:25:21;;;;;;;;;;;;;;;;;;2140799;27;19923;-44
2022/06/30 00:26:22;;;;;;;;;;;;;;;;;;2140522;27;20329;-43
2022/06/30 00:27:22;;;;;;;;;;;;;;;;;;2140699;27;20014;-45
2022/06/30 00:28:23;;;;;;;;;;;;;;;;;;2140757;27;19930;-44
2022/06/30 00:29:24;;;;;;;;;;;;;;;;;;2140659;27;19927;-43
2022/06/30 00:30:25;;;;;;;;;;;;;;;;;;2140574;27;20055;-43
2022/06/30 00:31:26;;;;;;;;;;;;;;;;;;2140804;27;20013;-46
2022/06/30 00:32:27;;;;;;;;;;;;;;;;;;2140769;27;20009;-46
2022/06/30 00:33:28;;;;;;;;;;;;;;;;;;2140644;27;20010;-46
2022/06/30 00:34:29;;;;;;;;;;;;;;;;;;2140612;27;19922;-45
2022/06/30 00:35:30;;;;;;;;;;;;;;;;;;2140582;27;19922;-46
2022/06/30 00:36:30;;;;;;;;;;;;;;;;;;2140642;27;19982;-46
2022/06/30 00:37:31;;;;;;;;;;;;;;;;;;2140630;27;20316;-46
2022/06/30 00:38:32;;;;;;;;;;;;;;;;;;2140478;27;19975;-47
2022/06/30 00:39:33;;;;;;;;;;;;;;;;;;2140575;27;20268;-46
2022/06/30 00:40:34;;;;;;;;;;;;;;;;;;2140744;27;19961;-46
2022/06/30 00:41:35;;;;;;;;;;;;;;;;;;2140548;27;20010;-47
2022/06/30 00:42:36;;;;;;;;;;;;;;;;;;2140609;27;20172;-46
2022/06/30 00:43:36;;;;;;;;;;;;;;;;;;2140655;27;20002;-46
2022/06/30 00:44:38;;;;;;;;;;;;;;;;;;2140433;27;20014;-46
2022/06/30 00:45:38;;;;;;;;;;;;;;;;;;2140558;27;19930;-46
2022/06/30 00:46:39;;;;;;;;;;;;;;;;;;2140533;27;19946;-46
2022/06/30 00:47:40;;;;;;;;;;;;;;;;;;2140721;27;19926;-45
2022/06/30 00:48:41;;;;;;;;;;;;;;;;;;2140631;27;19930;-45
2022/06/30 00:49:42;;;;;;;;;;;;;;;;;;2140786;27;19946;-47
2022/06/30 00:50:43;;;;;;;;;;;;;;;;;;2140518;27;19975;-46
2022/06/30 00:51:44;;;;;;;;;;;;;;;;;;2140574;27;19927;-45
2022/06/30 00:52:45;;;;;;;;;;;;;;;;;;2140506;27;19923;-46
2022/06/30 00:53:46;;;;;;;;;;;;;;;;;;2140567;27;20014;-46
2022/06/30 00:54:47;;;;;;;;;;;;;;;;;;2140819;27;19969;-43
2022/06/30 00:55:48;;;;;;;;;;;;;;;;;;2140664;27;20259;-44
2022/06/30 00:56:49;;;;;;;;;;;;;;;;;;2140573;27;19923;-43
2022/06/30 00:57:49;;;;;;;;;;;;;;;;;;2140478;27;19922;-43
2022/06/30 00:58:50;;;;;;;;;;;;;;;;;;2140539;27;19923;-43
2022/06/30 00:59:51;;;;;;;;;;;;;;;;;;2140458;27;20319;-43
2022/06/30 01:00:52;;;;;;;;;;;;;;;;;;2140515;27;19929;-43
2022/06/30 01:01:53;;;;;;;;;;;;;;;;;;2140427;27;20371;-43
2022/06/30 01:02:54;;;;;;;;;;;;;;;;;;2140608;27;20015;-43
2022/06/30 01:03:55;;;;;;;;;;;;;;;;;;2140585;27;19927;-43
2022/06/30 01:04:56;;;;;;;;;;;;;;;;;;2140450;27;19927;-44
2022/06/30 01:05:56;;;;;;;;;;;;;;;;;;2140504;27;19953;-43
2022/06/30 01:06:57;;;;;;;;;;;;;;;;;;2140459;27;20314;-43
2022/06/30 01:07:58;;;;;;;;;;;;;;;;;;2140518;27;19922;-43
2022/06/30 01:08:59;;;;;;;;;;;;;;;;;;2140341;27;19930;-45
2022/06/30 01:12:41;;;;;;;;;;;;;;;;;;2131727;27;20028;-43
2022/06/30 01:13:42;;;;;;;;;;;;;;;;;;2131746;27;20011;-44
2022/06/30 01:14:43;;;;;;;;;;;;;;;;;;2131745;27;19923;-43
2022/06/30 01:15:44;;;;;;;;;;;;;;;;;;2131756;27;20374;-44
2022/06/30 01:16:45;;;;;;;;;;;;;;;;;;2131852;27;19923;-44
2022/06/30 01:17:46;;;;;;;;;;;;;;;;;;2131738;27;19934;-43
2022/06/30 01:18:47;;;;;;;;;;;;;;;;;;2131998;27;19930;-46
2022/06/30 01:19:48;;;;;;;;;;;;;;;;;;2131842;27;20375;-46
2022/06/30 01:20:49;;;;;;;;;;;;;;;;;;2131530;27;20352;-46
2022/06/30 01:21:50;;;;;;;;;;;;;;;;;;2132302;27;19962;-46
2022/06/30 01:22:51;;;;;;;;;;;;;;;;;;2131732;27;19954;-45
2022/06/30 01:23:51;;;;;;;;;;;;;;;;;;2131583;27;20021;-47
2022/06/30 01:24:52;;;;;;;;;;;;;;;;;;2131730;27;20376;-46
2022/06/30 01:25:53;;;;;;;;;;;;;;;;;;2131644;27;20364;-45
2022/06/30 01:26:54;;;;;;;;;;;;;;;;;;2136827;27;19971;-43
2022/06/30 01:27:55;;;;;;;;;;;;;;;;;;2140314;27;19973;-43
2022/06/30 01:28:56;;;;;;;;;;;;;;;;;;2140050;27;19926;-44
2022/06/30 01:29:58;;;;;;;;;;;;;;;;;;2140381;27;19962;-44
2022/06/30 01:30:59;;;;;;;;;;;;;;;;;;2140319;27;20017;-43
2022/06/30 01:31:59;;;;;;;;;;;;;;;;;;2140278;27;20272;-44
2022/06/30 01:33:00;;;;;;;;;;;;;;;;;;2140593;27;19923;-44
2022/06/30 01:34:01;;;;;;;;;;;;;;;;;;2140295;27;20331;-45
2022/06/30 01:35:02;;;;;;;;;;;;;;;;;;2140389;27;19952;-43
2022/06/30 01:36:03;;;;;;;;;;;;;;;;;;2140162;27;19971;-43
2022/06/30 01:37:04;;;;;;;;;;;;;;;;;;2140361;27;20017;-43
2022/06/30 01:38:05;;;;;;;;;;;;;;;;;;2140287;27;19923;-43
2022/06/30 01:39:06;;;;;;;;;;;;;;;;;;2140419;27;19966;-44
2022/06/30 01:40:06;;;;;;;;;;;;;;;;;;2140278;27;19977;-43
2022/06/30 01:41:07;;;;;;;;;;;;;;;;;;2140142;27;19929;-43
2022/06/30 01:42:08;;;;;;;;;;;;;;;;;;2140189;27;19935;-44
2022/06/30 01:43:11;;;;;;;;;;;;;;;;;;2140220;27;19922;-44
2022/06/30 01:44:12;;;;;;;;;;;;;;;;;;2140338;27;20005;-43
2022/06/30 01:45:13;;;;;;;;;;;;;;;;;;2140087;27;20439;-45
2022/06/30 01:46:14;;;;;;;;;;;;;;;;;;2140516;27;20351;-45
2022/06/30 01:47:14;;;;;;;;;;;;;;;;;;2140303;27;20015;-45
2022/06/30 01:48:15;;;;;;;;;;;;;;;;;;2140263;27;19927;-44
2022/06/30 01:49:16;;;;;;;;;;;;;;;;;;2140314;27;20017;-45
2022/06/30 01:50:17;;;;;;;;;;;;;;;;;;2140491;27;20371;-45
2022/06/30 01:51:18;;;;;;;;;;;;;;;;;;2140223;27;19922;-44
2022/06/30 01:52:19;;;;;;;;;;;;;;;;;;2140159;27;19930;-45
2022/06/30 01:53:20;;;;;;;;;;;;;;;;;;2140269;27;19922;-44
2022/06/30 01:54:21;;;;;;;;;;;;;;;;;;2139962;27;20442;-44
2022/06/30 01:55:23;;;;;;;;;;;;;;;;;;2140069;27;20379;-44
2022/06/30 01:56:24;;;;;;;;;;;;;;;;;;2140054;27;19922;-44
2022/06/30 01:57:27;;;;;;;;;;;;;;;;;;2140089;27;20371;-44
2022/06/30 01:58:28;;;;;;;;;;;;;;;;;;2140404;27;19934;-45
2022/06/30 01:59:29;;;;;;;;;;;;;;;;;;2140465;27;20283;-46
2022/06/30 02:00:31;;;;;;;;;;;;;;;;;;2140695;27;19923;-46
2022/06/30 02:01:32;;;;;;;;;;;;;;;;;;2140321;27;19966;-44
2022/06/30 02:02:33;;;;;;;;;;;;;;;;;;2140334;27;19929;-44
2022/06/30 02:03:34;;;;;;;;;;;;;;;;;;2140127;27;19929;-44
2022/06/30 02:04:47;;;;;;;;;;;;;;;;;;2140649;27;19923;-45
2022/06/30 02:05:48;;;;;;;;;;;;;;;;;;2140041;27;20023;-44
2022/06/30 02:06:48;;;;;;;;;;;;;;;;;;2140497;27;19971;-44
2022/06/30 02:07:49;;;;;;;;;;;;;;;;;;2140157;27;19962;-44
2022/06/30 02:08:50;;;;;;;;;;;;;;;;;;2140226;27;19922;-44
2022/06/30 02:09:51;;;;;;;;;;;;;;;;;;2140188;27;20501;-44
2022/06/30 02:10:52;;;;;;;;;;;;;;;;;;2140006;27;20397;-44
2022/06/30 02:12:45;;;;;;;;;;;;;;;;;;2131442;27;19923;-44
2022/06/30 02:13:19;;;;;;;;;;;;;;;;;;2131642;27;20025;-44
2022/06/30 02:14:20;;;;;;;;;;;;;;;;;;2131601;27;20055;-46
2022/06/30 02:15:22;;;;;;;;;;;;;;;;;;2131424;27;19927;-46
2022/06/30 02:16:22;;;;;;;;;;;;;;;;;;2131227;27;20014;-45
2022/06/30 02:17:24;;;;;;;;;;;;;;;;;;2131412;27;19927;-45
2022/06/30 02:18:24;;;;;;;;;;;;;;;;;;2131560;27;19923;-46
2022/06/30 02:19:25;;;;;;;;;;;;;;;;;;2131430;27;19962;-46
2022/06/30 02:20:26;;;;;;;;;;;;;;;;;;2131656;27;19988;-45
2022/06/30 02:21:27;;;;;;;;;;;;;;;;;;2131409;27;20014;-44
2022/06/30 02:22:28;;;;;;;;;;;;;;;;;;2131501;27;20405;-44
2022/06/30 02:23:29;;;;;;;;;;;;;;;;;;2139376;27;20013;-45
2022/06/30 02:24:30;;;;;;;;;;;;;;;;;;2140047;27;20375;-45
2022/06/30 02:25:31;;;;;;;;;;;;;;;;;;2139864;27;20384;-46
2022/06/30 02:26:32;;;;;;;;;;;;;;;;;;2139900;27;20014;-46
2022/06/30 02:27:33;;;;;;;;;;;;;;;;;;2140034;27;19950;-45
2022/06/30 02:28:34;;;;;;;;;;;;;;;;;;2140213;27;20205;-45
2022/06/30 02:29:34;;;;;;;;;;;;;;;;;;2140330;27;19958;-44
2022/06/30 02:30:35;;;;;;;;;;;;;;;;;;2139959;27;20299;-45
2022/06/30 02:31:36;;;;;;;;;;;;;;;;;;2139933;27;19962;-44
2022/06/30 02:32:37;;;;;;;;;;;;;;;;;;2140121;27;19942;-46
2022/06/30 02:33:38;;;;;;;;;;;;;;;;;;2140123;27;20331;-44
2022/06/30 02:34:39;;;;;;;;;;;;;;;;;;2139865;27;20025;-45
2022/06/30 02:35:40;;;;;;;;;;;;;;;;;;2139901;27;20336;-47
2022/06/30 02:36:41;;;;;;;;;;;;;;;;;;2139954;27;20062;-44
2022/06/30 02:37:42;;;;;;;;;;;;;;;;;;2140029;27;19958;-44
2022/06/30 02:38:42;;;;;;;;;;;;;;;;;;2140067;27;20363;-45
2022/06/30 02:39:44;;;;;;;;;;;;;;;;;;2140208;27;19923;-44
2022/06/30 02:40:44;;;;;;;;;;;;;;;;;;2140197;27;19930;-46
2022/06/30 02:41:45;;;;;;;;;;;;;;;;;;2141130;27;20021;-45
2022/06/30 02:42:46;;;;;;;;;;;;;;;;;;2141532;27;20306;-45
2022/06/30 02:43:48;;;;;;;;;;;;;;;;;;2141323;27;19969;-46
2022/06/30 02:44:49;;;;;;;;;;;;;;;;;;2141489;27;20017;-46
2022/06/30 02:45:50;;;;;;;;;;;;;;;;;;2141347;27;20026;-45
2022/06/30 02:46:51;;;;;;;;;;;;;;;;;;2141445;27;20017;-45
2022/06/30 02:47:55;;;;;;;;;;;;;;;;;;2141326;27;20272;-45
2022/06/30 02:48:56;;;;;;;;;;;;;;;;;;2141409;27;20009;-45
2022/06/30 02:49:57;;;;;;;;;;;;;;;;;;2141272;27;19922;-45
2022/06/30 02:50:58;;;;;;;;;;;;;;;;;;2141657;27;19969;-44
2022/06/30 02:51:59;;;;;;;;;;;;;;;;;;2141523;27;19923;-45
2022/06/30 02:53:00;;;;;;;;;;;;;;;;;;2141288;27;19923;-46
2022/06/30 02:54:00;;;;;;;;;;;;;;;;;;2141361;27;20418;-45
2022/06/30 02:55:01;;;;;;;;;;;;;;;;;;2141652;27;19923;-45
2022/06/30 02:56:02;;;;;;;;;;;;;;;;;;2141308;27;20401;-45
2022/06/30 02:57:03;;;;;;;;;;;;;;;;;;2141240;27;20052;-45
2022/06/30 02:58:04;;;;;;;;;;;;;;;;;;2141588;27;19926;-46
2022/06/30 02:59:05;;;;;;;;;;;;;;;;;;2141408;27;19967;-44
2022/06/30 03:00:06;;;;;;;;;;;;;;;;;;2141325;27;20070;-45
2022/06/30 03:01:07;;;;;;;;;;;;;;;;;;2141186;27;20393;-44
2022/06/30 03:02:07;;;;;;;;;;;;;;;;;;2141210;27;20009;-44
2022/06/30 03:03:08;;;;;;;;;;;;;;;;;;2141484;27;19929;-46
2022/06/30 03:04:09;;;;;;;;;;;;;;;;;;2141259;27;19922;-45
2022/06/30 03:05:10;;;;;;;;;;;;;;;;;;2141499;27;20013;-47
2022/06/30 03:06:11;;;;;;;;;;;;;;;;;;2141476;27;20291;-45
2022/06/30 03:07:12;;;;;;;;;;;;;;;;;;2141548;27;19934;-45
2022/06/30 03:08:13;;;;;;;;;;;;;;;;;;2141278;27;19922;-46
2022/06/30 03:09:14;;;;;;;;;;;;;;;;;;2141830;27;19923;-45
2022/06/30 03:10:15;;;;;;;;;;;;;;;;;;2141164;27;20328;-46
2022/06/30 03:11:16;;;;;;;;;;;;;;;;;;2137899;27;19972;-46
2022/06/30 03:12:29;;;;;;;;;;;;;;;;;;2132911;27;19949;-44
2022/06/30 03:13:30;;;;;;;;;;;;;;;;;;2132558;27;19968;-44
2022/06/30 03:14:31;;;;;;;;;;;;;;;;;;2132568;27;20394;-45
2022/06/30 03:15:32;;;;;;;;;;;;;;;;;;2132534;27;20165;-45
2022/06/30 03:16:33;;;;;;;;;;;;;;;;;;2132529;27;19988;-44
2022/06/30 03:17:34;;;;;;;;;;;;;;;;;;2132546;27;20030;-44
2022/06/30 03:18:35;;;;;;;;;;;;;;;;;;2132896;27;19962;-45
2022/06/30 03:19:36;;;;;;;;;;;;;;;;;;2139025;27;19922;-44
2022/06/30 03:20:37;;;;;;;;;;;;;;;;;;2141274;27;20383;-44
2022/06/30 03:21:39;;;;;;;;;;;;;;;;;;2141084;27;19930;-44
2022/06/30 03:22:39;;;;;;;;;;;;;;;;;;2140992;27;19975;-44
2022/06/30 03:23:40;;;;;;;;;;;;;;;;;;2141292;27;20030;-44
2022/06/30 03:24:41;;;;;;;;;;;;;;;;;;2141112;27;19939;-45
2022/06/30 03:25:42;;;;;;;;;;;;;;;;;;2141001;27;19964;-44
2022/06/30 03:26:43;;;;;;;;;;;;;;;;;;2141416;27;19966;-46
2022/06/30 03:27:44;;;;;;;;;;;;;;;;;;2141258;27;19922;-47
2022/06/30 03:28:45;;;;;;;;;;;;;;;;;;2141038;27;19922;-45
2022/06/30 03:29:46;;;;;;;;;;;;;;;;;;2141290;27;19923;-44
2022/06/30 03:30:47;;;;;;;;;;;;;;;;;;2141007;27;19923;-44
2022/06/30 03:31:48;;;;;;;;;;;;;;;;;;2141129;27;19975;-44
2022/06/30 03:32:49;;;;;;;;;;;;;;;;;;2141079;27;19950;-44
2022/06/30 03:33:50;;;;;;;;;;;;;;;;;;2141161;27;20386;-44
2022/06/30 03:34:51;;;;;;;;;;;;;;;;;;2141281;27;19975;-45
2022/06/30 03:35:52;;;;;;;;;;;;;;;;;;2141152;27;20017;-46
2022/06/30 03:36:53;;;;;;;;;;;;;;;;;;2141037;27;20385;-46
2022/06/30 03:37:54;;;;;;;;;;;;;;;;;;2140985;27;19923;-47
2022/06/30 03:38:55;;;;;;;;;;;;;;;;;;2141152;27;20386;-46
2022/06/30 03:39:56;;;;;;;;;;;;;;;;;;2140999;27;20149;-47
2022/06/30 03:40:57;;;;;;;;;;;;;;;;;;2141009;27;19937;-47
2022/06/30 03:41:57;;;;;;;;;;;;;;;;;;2141059;27;19967;-47
2022/06/30 03:42:59;;;;;;;;;;;;;;;;;;2141011;27;19931;-47
2022/06/30 03:43:59;;;;;;;;;;;;;;;;;;2140940;27;19992;-47
2022/06/30 03:45:00;;;;;;;;;;;;;;;;;;2141111;27;19923;-46
2022/06/30 03:46:01;;;;;;;;;;;;;;;;;;2141034;27;19977;-47
2022/06/30 03:47:02;;;;;;;;;;;;;;;;;;2141108;27;19922;-46
2022/06/30 03:48:03;;;;;;;;;;;;;;;;;;2141241;27;19923;-46
2022/06/30 03:49:04;;;;;;;;;;;;;;;;;;2140992;27;19923;-45
2022/06/30 03:50:05;;;;;;;;;;;;;;;;;;2140953;27;19923;-47
2022/06/30 03:51:06;;;;;;;;;;;;;;;;;;2140891;27;20287;-46
2022/06/30 03:52:07;;;;;;;;;;;;;;;;;;2140915;27;19987;-45
2022/06/30 03:53:08;;;;;;;;;;;;;;;;;;2140764;27;19925;-49
2022/06/30 03:54:09;;;;;;;;;;;;;;;;;;2140845;27;19923;-46
2022/06/30 03:55:10;;;;;;;;;;;;;;;;;;2140945;27;19923;-48
2022/06/30 03:56:12;;;;;;;;;;;;;;;;;;2141170;27;19923;-45
2022/06/30 03:57:12;;;;;;;;;;;;;;;;;;2140887;27;19930;-44
2022/06/30 03:58:13;;;;;;;;;;;;;;;;;;2140896;27;19969;-44
2022/06/30 03:59:14;;;;;;;;;;;;;;;;;;2141084;27;19923;-44
2022/06/30 04:00:15;;;;;;;;;;;;;;;;;;2140807;27;19930;-44
2022/06/30 04:01:16;;;;;;;;;;;;;;;;;;2140931;27;20394;-45
2022/06/30 04:02:17;;;;;;;;;;;;;;;;;;2140931;27;19930;-44
2022/06/30 04:03:18;;;;;;;;;;;;;;;;;;2140953;27;19930;-44
2022/06/30 04:04:19;;;;;;;;;;;;;;;;;;2140972;27;20289;-44
2022/06/30 04:05:20;;;;;;;;;;;;;;;;;;2140859;27;20009;-45
2022/06/30 04:06:23;;;;;;;;;;;;;;;;;;2140722;27;19923;-44
2022/06/30 04:07:23;;;;;;;;;;;;;;;;;;2140788;27;20446;-44
2022/06/30 04:08:24;;;;;;;;;;;;;;;;;;2140981;27;19923;-44
2022/06/30 04:09:25;;;;;;;;;;;;;;;;;;2140793;27;20362;-44
2022/06/30 04:10:26;;;;;;;;;;;;;;;;;;2140876;27;20018;-45
2022/06/30 04:11:27;;;;;;;;;;;;;;;;;;2135781;27;19923;-45
2022/06/30 04:12:28;;;;;;;;;;;;;;;;;;2132394;27;19969;-44
2022/06/30 04:13:29;;;;;;;;;;;;;;;;;;2132210;27;20363;-45
2022/06/30 04:14:30;;;;;;;;;;;;;;;;;;2132268;27;19958;-45
2022/06/30 04:15:31;;;;;;;;;;;;;;;;;;2136003;27;19972;-44
2022/06/30 04:16:32;;;;;;;;;;;;;;;;;;2140984;27;20312;-46
2022/06/30 04:17:33;;;;;;;;;;;;;;;;;;2140634;27;19923;-45
2022/06/30 04:18:34;;;;;;;;;;;;;;;;;;2140747;27;19926;-47
2022/06/30 04:19:35;;;;;;;;;;;;;;;;;;2140889;27;19922;-46
2022/06/30 04:20:36;;;;;;;;;;;;;;;;;;2140651;27;20087;-46
2022/06/30 04:21:37;;;;;;;;;;;;;;;;;;2140769;27;19927;-46
2022/06/30 04:22:38;;;;;;;;;;;;;;;;;;2140935;27;19929;-44
2022/06/30 04:23:38;;;;;;;;;;;;;;;;;;2140904;27;20318;-45
2022/06/30 04:24:39;;;;;;;;;;;;;;;;;;2141003;27;19922;-46
2022/06/30 04:25:41;;;;;;;;;;;;;;;;;;2141252;27;19933;-46
2022/06/30 04:26:42;;;;;;;;;;;;;;;;;;2140472;27;20371;-48
2022/06/30 04:27:43;;;;;;;;;;;;;;;;;;2140854;27;19930;-45
2022/06/30 04:28:44;;;;;;;;;;;;;;;;;;2141038;27;19926;-43
2022/06/30 04:29:45;;;;;;;;;;;;;;;;;;2140783;27;19923;-44
2022/06/30 04:33:25;;;;;;;;;;;;;;;;;;2132386;27;19923;-45
2022/06/30 04:34:26;;;;;;;;;;;;;;;;;;2132053;27;19923;-43
2022/06/30 04:35:27;;;;;;;;;;;;;;;;;;2132079;27;19972;-45
2022/06/30 04:36:27;;;;;;;;;;;;;;;;;;2132154;27;20284;-46
2022/06/30 04:37:28;;;;;;;;;;;;;;;;;;2132209;27;19923;-44
2022/06/30 04:38:29;;;;;;;;;;;;;;;;;;2132305;27;20387;-46
2022/06/30 04:39:30;;;;;;;;;;;;;;;;;;2132276;27;19971;-44
2022/06/30 04:41:50;;;;;;;;;;;;;;;;;;2132228;27;19963;-47
2022/06/30 04:42:51;;;;;;;;;;;;;;;;;;2132003;27;19927;-46
2022/06/30 04:43:52;;;;;;;;;;;;;;;;;;2131952;27;20279;-46
2022/06/30 04:44:53;;;;;;;;;;;;;;;;;;2131902;27;19923;-46
2022/06/30 04:45:54;;;;;;;;;;;;;;;;;;2132032;27;20037;-46
2022/06/30 04:46:55;;;;;;;;;;;;;;;;;;2132328;27;19976;-44
2022/06/30 04:47:56;;;;;;;;;;;;;;;;;;2131786;27;19923;-44
2022/06/30 04:48:57;;;;;;;;;;;;;;;;;;2132318;27;19927;-44
2022/06/30 04:49:58;;;;;;;;;;;;;;;;;;2131796;27;19924;-44
2022/06/30 04:50:59;;;;;;;;;;;;;;;;;;2132765;27;19927;-46
2022/06/30 04:51:59;;;;;;;;;;;;;;;;;;2131910;27;19998;-46
2022/06/30 04:53:00;;;;;;;;;;;;;;;;;;2132332;27;20460;-47
2022/06/30 04:54:01;;;;;;;;;;;;;;;;;;2131897;27;19966;-46
2022/06/30 04:55:02;;;;;;;;;;;;;;;;;;2131832;27;19985;-46
2022/06/30 04:56:03;;;;;;;;;;;;;;;;;;2131809;27;19973;-47
2022/06/30 04:57:04;;;;;;;;;;;;;;;;;;2132019;27;19958;-47
2022/06/30 04:58:05;;;;;;;;;;;;;;;;;;2132126;27;19962;-47
2022/06/30 04:59:05;;;;;;;;;;;;;;;;;;2131863;27;20043;-47
2022/06/30 05:00:07;;;;;;;;;;;;;;;;;;2132040;27;20407;-46
2022/06/30 05:01:08;;;;;;;;;;;;;;;;;;2131841;27;19923;-48
2022/06/30 05:02:09;;;;;;;;;;;;;;;;;;2131842;27;19923;-46
2022/06/30 05:03:10;;;;;;;;;;;;;;;;;;2131852;27;19923;-46
2022/06/30 05:04:11;;;;;;;;;;;;;;;;;;2131556;27;20413;-49
2022/06/30 05:05:12;;;;;;;;;;;;;;;;;;2131972;27;19927;-44
2022/06/30 05:06:12;;;;;;;;;;;;;;;;;;2131767;27;19930;-44
2022/06/30 05:07:13;;;;;;;;;;;;;;;;;;2131927;27;19987;-46
2022/06/30 05:08:14;;;;;;;;;;;;;;;;;;2132157;27;20376;-47
2022/06/30 05:09:15;;;;;;;;;;;;;;;;;;2131912;27;19923;-48
2022/06/30 05:10:16;;;;;;;;;;;;;;;;;;2131777;27;20018;-48
2022/06/30 05:11:17;;;;;;;;;;;;;;;;;;2131516;27;19923;-45
2022/06/30 05:12:17;;;;;;;;;;;;;;;;;;2140234;27;19923;-47
2022/06/30 05:13:19;;;;;;;;;;;;;;;;;;2140510;27;19923;-48
2022/06/30 05:14:19;;;;;;;;;;;;;;;;;;2140388;27;19968;-44
2022/06/30 05:15:21;;;;;;;;;;;;;;;;;;2140206;27;20056;-45
2022/06/30 05:16:22;;;;;;;;;;;;;;;;;;2140347;27;20396;-45
2022/06/30 05:17:22;;;;;;;;;;;;;;;;;;2140417;27;20318;-45
2022/06/30 05:18:26;;;;;;;;;;;;;;;;;;2140650;27;19922;-45
2022/06/30 05:19:27;;;;;;;;;;;;;;;;;;2140370;27;20474;-44
2022/06/30 05:20:28;;;;;;;;;;;;;;;;;;2140370;27;19922;-44
2022/06/30 05:21:29;;;;;;;;;;;;;;;;;;2140146;27;19929;-48
2022/06/30 05:22:30;;;;;;;;;;;;;;;;;;2140281;27;19945;-45
2022/06/30 05:23:30;;;;;;;;;;;;;;;;;;2140390;27;19922;-48
2022/06/30 05:27:10;;;;;;;;;;;;;;;;;;2140376;27;20528;-44
2022/06/30 05:28:10;;;;;;;;;;;;;;;;;;2140339;27;19930;-44
2022/06/30 05:29:11;;;;;;;;;;;;;;;;;;2140309;27;20279;-44
2022/06/30 05:30:12;;;;;;;;;;;;;;;;;;2140657;27;19967;-46
2022/06/30 05:31:13;;;;;;;;;;;;;;;;;;2140393;27;19931;-48
2022/06/30 05:32:14;;;;;;;;;;;;;;;;;;2140297;27;19930;-46
2022/06/30 05:33:15;;;;;;;;;;;;;;;;;;2140312;27;19923;-47
2022/06/30 05:34:16;;;;;;;;;;;;;;;;;;2140407;27;20013;-47
2022/06/30 05:35:17;;;;;;;;;;;;;;;;;;2140287;27;20313;-48
2022/06/30 05:36:22;;;;;;;;;;;;;;;;;;2140381;27;19934;-46
2022/06/30 05:37:23;;;;;;;;;;;;;;;;;;2140259;27;19977;-46
2022/06/30 05:38:24;;;;;;;;;;;;;;;;;;2140398;27;19974;-46
2022/06/30 05:39:25;;;;;;;;;;;;;;;;;;2140454;27;20279;-44
2022/06/30 05:40:26;;;;;;;;;;;;;;;;;;2140166;27;19923;-44
2022/06/30 05:41:27;;;;;;;;;;;;;;;;;;2140349;27;20379;-44
2022/06/30 05:42:29;;;;;;;;;;;;;;;;;;2140333;27;19966;-43
2022/06/30 05:43:30;;;;;;;;;;;;;;;;;;2140151;27;19922;-45
2022/06/30 05:44:30;;;;;;;;;;;;;;;;;;2140309;27;19923;-45
2022/06/30 05:45:31;;;;;;;;;;;;;;;;;;2140126;27;19972;-43
2022/06/30 05:46:32;;;;;;;;;;;;;;;;;;2140261;27;19923;-43
2022/06/30 05:47:33;;;;;;;;;;;;;;;;;;2140341;27;19971;-44
2022/06/30 05:48:34;;;;;;;;;;;;;;;;;;2140340;27;19934;-44
2022/06/30 05:49:37;;;;;;;;;;;;;;;;;;2140260;27;20367;-44
2022/06/30 05:50:38;;;;;;;;;;;;;;;;;;2140440;27;20107;-47
2022/06/30 05:51:39;;;;;;;;;;;;;;;;;;2140076;27;20687;-47
2022/06/30 05:52:39;;;;;;;;;;;;;;;;;;2140068;27;19927;-47
2022/06/30 05:53:40;;;;;;;;;;;;;;;;;;2140299;27;20025;-48
2022/06/30 05:54:41;;;;;;;;;;;;;;;;;;2140224;27;19923;-46
2022/06/30 05:55:42;;;;;;;;;;;;;;;;;;2140158;27;19923;-46
2022/06/30 05:56:43;;;;;;;;;;;;;;;;;;2140232;27;19937;-44
2022/06/30 05:57:44;;;;;;;;;;;;;;;;;;2140267;27;19937;-44
2022/06/30 05:58:45;;;;;;;;;;;;;;;;;;2140211;27;20009;-44
2022/06/30 05:59:46;;;;;;;;;;;;;;;;;;2140764;27;20256;-43
2022/06/30 06:00:47;;;;;;;;;;;;;;;;;;2140527;27;20083;-47
2022/06/30 06:01:48;;;;;;;;;;;;;;;;;;2140115;27;19958;-44
2022/06/30 06:02:49;;;;;;;;;;;;;;;;;;2140350;27;19923;-44
2022/06/30 06:03:54;;;;;;;;;;;;;;;;;;2140732;27;19922;-47
2022/06/30 06:04:55;;;;;;;;;;;;;;;;;;2140143;27;20153;-47
2022/06/30 06:05:56;;;;;;;;;;;;;;;;;;2140314;27;19970;-46
2022/06/30 06:06:57;;;;;;;;;;;;;;;;;;2140331;27;19987;-47
2022/06/30 06:07:58;;;;;;;;;;;;;;;;;;2140013;27;20010;-50
2022/06/30 06:08:59;;;;;;;;;;;;;;;;;;2140133;27;19967;-47
2022/06/30 06:10:00;;;;;;;;;;;;;;;;;;2140311;27;20427;-50
2022/06/30 06:11:07;;;;;;;;;;;;;;;;;;2138061;27;19927;-43
2022/06/30 06:12:08;;;;;;;;;;;;;;;;;;2131647;27;19923;-44
2022/06/30 06:13:09;;;;;;;;;;;;;;;;;;2131373;27;20019;-43
2022/06/30 06:14:10;;;;;;;;;;;;;;;;;;2131322;27;19942;-44
2022/06/30 06:15:11;;;;;;;;;;;;;;;;;;2131581;27;19930;-47
2022/06/30 06:16:12;;;;;;;;;;;;;;;;;;2132122;27;19993;-47
2022/06/30 06:17:12;;;;;;;;;;;;;;;;;;2133077;27;20371;-44
2022/06/30 06:18:15;;;;;;;;;;;;;;;;;;2133060;27;19951;-44
2022/06/30 06:19:16;;;;;;;;;;;;;;;;;;2133226;27;20010;-44
2022/06/30 06:20:22;;;;;;;;;;;;;;;;;;2132889;27;19927;-44
2022/06/30 06:21:23;;;;;;;;;;;;;;;;;;2133423;27;19923;-48
2022/06/30 06:22:25;;;;;;;;;;;;;;;;;;2133124;27;19923;-48
2022/06/30 06:23:25;;;;;;;;;;;;;;;;;;2132876;27;20459;-47
2022/06/30 06:24:26;;;;;;;;;;;;;;;;;;2133259;27;19927;-48
2022/06/30 06:25:27;;;;;;;;;;;;;;;;;;2132961;27;19934;-48
2022/06/30 06:26:28;;;;;;;;;;;;;;;;;;2132800;27;20265;-49
2022/06/30 06:27:29;;;;;;;;;;;;;;;;;;2132798;27;20014;-49
2022/06/30 06:29:49;;;;;;;;;;;;;;;;;;2132866;27;19931;-47
2022/06/30 06:30:50;;;;;;;;;;;;;;;;;;2133066;27;19923;-47
2022/06/30 06:31:51;;;;;;;;;;;;;;;;;;2132863;27;20364;-45
2022/06/30 06:32:52;;;;;;;;;;;;;;;;;;2132948;27;19958;-45
2022/06/30 06:33:53;;;;;;;;;;;;;;;;;;2133061;27;19946;-48
2022/06/30 06:34:54;;;;;;;;;;;;;;;;;;2132848;27;20356;-48
2022/06/30 06:35:55;;;;;;;;;;;;;;;;;;2132634;27;20401;-47
2022/06/30 06:36:56;;;;;;;;;;;;;;;;;;2132887;27;19979;-49
2022/06/30 06:37:57;;;;;;;;;;;;;;;;;;2132765;27;20033;-47
2022/06/30 06:38:58;;;;;;;;;;;;;;;;;;2132846;27;20372;-48
2022/06/30 06:40:00;;;;;;;;;;;;;;;;;;2133042;27;19923;-47
2022/06/30 06:41:02;;;;;;;;;;;;;;;;;;2132702;27;19969;-51
2022/06/30 06:42:03;;;;;;;;;;;;;;;;;;2132866;27;20014;-49
2022/06/30 06:43:04;;;;;;;;;;;;;;;;;;2133133;27;19923;-49
2022/06/30 06:44:05;;;;;;;;;;;;;;;;;;2132681;27;19923;-50
2022/06/30 06:45:06;;;;;;;;;;;;;;;;;;2132827;27;19954;-48
2022/06/30 06:46:07;;;;;;;;;;;;;;;;;;2132967;27;19972;-45
2022/06/30 06:47:08;;;;;;;;;;;;;;;;;;2132796;27;20340;-49
2022/06/30 06:48:09;;;;;;;;;;;;;;;;;;2132725;27;19929;-47
2022/06/30 06:49:10;;;;;;;;;;;;;;;;;;2132764;27;19953;-47
2022/06/30 06:50:10;;;;;;;;;;;;;;;;;;2132719;27;19969;-47
2022/06/30 06:51:11;;;;;;;;;;;;;;;;;;2132629;27;19963;-48
2022/06/30 06:52:12;;;;;;;;;;;;;;;;;;2132912;27;20280;-49
2022/06/30 06:53:13;;;;;;;;;;;;;;;;;;2132705;27;20006;-48
2022/06/30 06:54:14;;;;;;;;;;;;;;;;;;2132734;27;19923;-50
2022/06/30 06:55:17;;;;;;;;;;;;;;;;;;2132752;27;19971;-47
2022/06/30 06:56:18;;;;;;;;;;;;;;;;;;2132513;27;19929;-47
2022/06/30 06:57:19;;;;;;;;;;;;;;;;;;2132705;27;20347;-47
2022/06/30 06:58:20;;;;;;;;;;;;;;;;;;2132591;27;19930;-48
2022/06/30 06:59:21;;;;;;;;;;;;;;;;;;2132660;27;20259;-47
2022/06/30 07:00:22;;;;;;;;;;;;;;;;;;2132603;27;20009;-47
2022/06/30 07:01:23;;;;;;;;;;;;;;;;;;2132744;27;19927;-50
2022/06/30 07:02:24;;;;;;;;;;;;;;;;;;2132610;27;19930;-49
2022/06/30 07:03:25;;;;;;;;;;;;;;;;;;2132870;27;20359;-44
2022/06/30 07:04:25;;;;;;;;;;;;;;;;;;2137825;27;19923;-45
2022/06/30 07:05:27;;;;;;;;;;;;;;;;;;2141316;27;19934;-45
2022/06/30 07:06:28;;;;;;;;;;;;;;;;;;2141369;27;20290;-44
2022/06/30 07:07:29;;;;;;;;;;;;;;;;;;2141401;27;20017;-47
2022/06/30 07:08:30;;;;;;;;;;;;;;;;;;2141296;27;20372;-47